Mokshan, Russia
Current Conditions -  °F | °C
As of 10:00 AM on Friday 24 Oct 2014 (Local Time) from UWSS Reporting Station
Broken Clouds Broken Clouds  
Wind Chill:   Ceiling: 2600
Heat Index: 21°   Visibility: 6mi
Dew Point: 12°   Wind: 13mph
Humidity: 68%   Direction: 340°NNW
Pressure: 30.27"   Gusts: 20mph
Location:  53.44°N, 44.62°E
Report Text: UWSS 240700Z 34006G09MPS 9999 BKN026 M06/M11 Q1025 300///60NOSIG RMK QFE755
Loading
Personal Weather Stations






























Interactive Weather Map
Tropical Storm Tracking
New forecast layout! Learn more

10-Day Weather Forecast

Advertisements
Track Severe Weather on mobile